sensor_id;sensor_type;location;lat;lon;timestamp;pressure;altitude;pressure_sealevel;temperature;humidity
74230;BME280;62589;12.568;99.958;2023-08-31T00:01:15;100504.19;;;34.76;50.62
74230;BME280;62589;12.568;99.958;2023-08-31T00:03:42;100516.13;;;34.76;50.64
74230;BME280;62589;12.568;99.958;2023-08-31T00:06:10;100509.78;;;34.76;50.79
74230;BME280;62589;12.568;99.958;2023-08-31T00:08:36;100519.72;;;34.77;50.18
74230;BME280;62589;12.568;99.958;2023-08-31T00:11:03;100522.13;;;34.78;50.55
74230;BME280;62589;12.568;99.958;2023-08-31T00:13:29;100523.31;;;34.77;50.18
74230;BME280;62589;12.568;99.958;2023-08-31T00:15:57;100524.94;;;34.78;50.13
74230;BME280;62589;12.568;99.958;2023-08-31T00:18:24;100524.94;;;34.78;50.24
74230;BME280;62589;12.568;99.958;2023-08-31T00:20:51;100523.31;;;34.77;49.90
74230;BME280;62589;12.568;99.958;2023-08-31T00:23:18;100528.09;;;34.77;49.92
74230;BME280;62589;12.568;99.958;2023-08-31T00:25:47;100525.72;;;34.79;50.10
74230;BME280;62589;12.568;99.958;2023-08-31T00:28:15;100524.13;;;34.78;50.31
74230;BME280;62589;12.568;99.958;2023-08-31T00:30:44;100537.25;;;34.81;50.60
74230;BME280;62589;12.568;99.958;2023-08-31T00:33:12;100542.47;;;34.79;50.37
74230;BME280;62589;12.568;99.958;2023-08-31T00:35:38;100539.25;;;34.80;50.77
74230;BME280;62589;12.568;99.958;2023-08-31T00:38:09;100551.22;;;34.81;50.54
74230;BME280;62589;12.568;99.958;2023-08-31T00:40:42;100544.03;;;34.80;50.51
74230;BME280;62589;12.568;99.958;2023-08-31T00:43:10;100551.59;;;34.83;50.31
74230;BME280;62589;12.568;99.958;2023-08-31T00:45:37;100557.19;;;34.83;50.63
74230;BME280;62589;12.568;99.958;2023-08-31T00:48:06;100551.19;;;34.85;50.40
74230;BME280;62589;12.568;99.958;2023-08-31T00:50:33;100562.75;;;34.87;50.84
74230;BME280;62589;12.568;99.958;2023-08-31T00:52:59;100556.75;;;34.88;50.79
74230;BME280;62589;12.568;99.958;2023-08-31T00:55:26;100555.56;;;34.89;50.65
74230;BME280;62589;12.568;99.958;2023-08-31T00:57:52;100553.56;;;34.90;50.81
74230;BME280;62589;12.568;99.958;2023-08-31T01:00:19;100561.53;;;34.91;50.79
74230;BME280;62589;12.568;99.958;2023-08-31T01:03:12;100567.09;;;34.91;50.87
74230;BME280;62589;12.568;99.958;2023-08-31T01:06:07;100576.63;;;34.97;51.17
74230;BME280;62589;12.568;99.958;2023-08-31T01:08:54;100566.28;;;34.94;50.90
74230;BME280;62589;12.568;99.958;2023-08-31T01:11:31;100565.06;;;34.95;51.07
74230;BME280;62589;12.568;99.958;2023-08-31T01:14:15;100569.44;;;34.96;51.14
74230;BME280;62589;12.568;99.958;2023-08-31T01:16:44;100572.63;;;34.98;51.43
74230;BME280;62589;12.568;99.958;2023-08-31T01:25:01;100572.63;;;35.02;51.48
74230;BME280;62589;12.568;99.958;2023-08-31T01:27:32;100572.19;;;35.03;51.70
74230;BME280;62589;12.568;99.958;2023-08-31T01:29:59;100560.63;;;35.05;51.78
74230;BME280;62589;12.568;99.958;2023-08-31T01:32:26;100557.41;;;35.10;51.75
74230;BME280;62589;12.568;99.958;2023-08-31T01:34:53;100550.25;;;35.09;52.26
74230;BME280;62589;12.568;99.958;2023-08-31T01:37:29;100551.03;;;35.09;52.14
74230;BME280;62589;12.568;99.958;2023-08-31T01:42:42;100554.97;;;35.15;52.07
74230;BME280;62589;12.568;99.958;2023-08-31T01:45:11;100553.34;;;35.18;52.11
74230;BME280;62589;12.568;99.958;2023-08-31T01:47:40;100564.88;;;35.24;52.34
74230;BME280;62589;12.568;99.958;2023-08-31T01:50:07;100567.28;;;35.29;52.09
74230;BME280;62589;12.568;99.958;2023-08-31T01:52:34;100568.06;;;35.33;52.38
74230;BME280;62589;12.568;99.958;2023-08-31T01:55:04;100563.59;;;35.39;52.15
74230;BME280;62589;12.568;99.958;2023-08-31T01:57:30;100574.31;;;35.47;52.24
74230;BME280;62589;12.568;99.958;2023-08-31T01:59:58;100577.47;;;35.53;51.70
74230;BME280;62589;12.568;99.958;2023-08-31T02:02:24;100582.19;;;35.56;51.74
74230;BME280;62589;12.568;99.958;2023-08-31T02:04:51;100588.56;;;35.60;51.65
74230;BME280;62589;12.568;99.958;2023-08-31T02:07:18;100596.13;;;35.63;51.16
74230;BME280;62589;12.568;99.958;2023-08-31T02:09:45;100577.72;;;35.69;50.97
74230;BME280;62589;12.568;99.958;2023-08-31T02:12:11;100584.06;;;35.73;51.28
74230;BME280;62589;12.568;99.958;2023-08-31T02:14:37;100592.00;;;35.78;51.26
74230;BME280;62589;12.568;99.958;2023-08-31T02:17:04;100587.97;;;35.87;51.05
74230;BME280;62589;12.568;99.958;2023-08-31T02:19:30;100581.53;;;35.90;50.45
74230;BME280;62589;12.568;99.958;2023-08-31T02:21:57;100592.63;;;35.97;50.02
74230;BME280;62589;12.568;99.958;2023-08-31T02:24:23;100597.78;;;36.02;49.50
74230;BME280;62589;12.568;99.958;2023-08-31T02:26:51;100602.16;;;36.03;48.77
74230;BME280;62589;12.568;99.958;2023-08-31T02:29:18;100605.34;;;36.05;48.33
74230;BME280;62589;12.568;99.958;2023-08-31T02:31:44;100610.91;;;36.08;48.21
74230;BME280;62589;12.568;99.958;2023-08-31T02:34:11;100603.69;;;36.11;48.39
74230;BME280;62589;12.568;99.958;2023-08-31T02:36:37;100612.44;;;36.13;48.31
74230;BME280;62589;12.568;99.958;2023-08-31T02:39:04;100617.22;;;36.16;48.12
74230;BME280;62589;12.568;99.958;2023-08-31T02:41:30;100620.34;;;36.18;47.91
74230;BME280;62589;12.568;99.958;2023-08-31T02:43:56;100619.16;;;36.19;47.62
74230;BME280;62589;12.568;99.958;2023-08-31T02:46:23;100608.34;;;36.21;47.38
74230;BME280;62589;12.568;99.958;2023-08-31T02:48:50;100619.53;;;36.21;46.73
74230;BME280;62589;12.568;99.958;2023-08-31T02:51:16;100622.31;;;36.25;47.50
74230;BME280;62589;12.568;99.958;2023-08-31T02:53:43;100623.13;;;36.25;47.93
74230;BME280;62589;12.568;99.958;2023-08-31T02:56:09;100628.25;;;36.30;47.89
74230;BME280;62589;12.568;99.958;2023-08-31T02:58:36;100627.06;;;36.31;48.18
74230;BME280;62589;12.568;99.958;2023-08-31T03:01:10;100622.66;;;36.34;47.91
74230;BME280;62589;12.568;99.958;2023-08-31T03:03:38;100624.66;;;36.33;47.97
74230;BME280;62589;12.568;99.958;2023-08-31T03:06:09;100622.66;;;36.34;48.14
74230;BME280;62589;12.568;99.958;2023-08-31T03:08:37;100619.81;;;36.37;48.33
74230;BME280;62589;12.568;99.958;2023-08-31T03:11:04;100624.53;;;36.40;48.38
74230;BME280;62589;12.568;99.958;2023-08-31T03:13:32;100623.31;;;36.45;48.10
74230;BME280;62589;12.568;99.958;2023-08-31T03:15:59;100625.69;;;36.46;48.49
74230;BME280;62589;12.568;99.958;2023-08-31T03:18:26;100625.66;;;36.50;48.72
74230;BME280;62589;12.568;99.958;2023-08-31T03:20:54;100632.03;;;36.51;48.20
74230;BME280;62589;12.568;99.958;2023-08-31T03:23:21;100628.03;;;36.52;47.70
74230;BME280;62589;12.568;99.958;2023-08-31T03:25:48;100634.78;;;36.54;47.63
74230;BME280;62589;12.568;99.958;2023-08-31T03:28:14;100627.19;;;36.55;47.55
74230;BME280;62589;12.568;99.958;2023-08-31T03:30:40;100630.38;;;36.57;47.96
74230;BME280;62589;12.568;99.958;2023-08-31T03:33:07;100637.56;;;36.58;47.98
74230;BME280;62589;12.568;99.958;2023-08-31T03:35:34;100622.72;;;36.61;48.14
74230;BME280;62589;12.568;99.958;2023-08-31T03:38:00;100639.44;;;36.64;48.76
74230;BME280;62589;12.568;99.958;2023-08-31T03:40:27;100634.63;;;36.68;48.69
74230;BME280;62589;12.568;99.958;2023-08-31T03:42:53;100635.78;;;36.71;49.08
74230;BME280;62589;12.568;99.958;2023-08-31T03:45:20;100636.19;;;36.73;48.45
74230;BME280;62589;12.568;99.958;2023-08-31T03:47:47;100642.13;;;36.78;48.16
74230;BME280;62589;12.568;99.958;2023-08-31T03:50:13;100642.13;;;36.78;48.18
74230;BME280;62589;12.568;99.958;2023-08-31T03:52:39;100632.06;;;36.81;47.88
74230;BME280;62589;12.568;99.958;2023-08-31T03:55:06;100651.25;;;36.82;47.47
74230;BME280;62589;12.568;99.958;2023-08-31T03:57:32;100642.81;;;36.86;47.38
74230;BME280;62589;12.568;99.958;2023-08-31T03:59:59;100647.59;;;36.86;47.10
74230;BME280;62589;12.568;99.958;2023-08-31T04:02:25;100645.19;;;36.88;46.45
74230;BME280;62589;12.568;99.958;2023-08-31T04:04:52;100649.19;;;36.87;46.45
74230;BME280;62589;12.568;99.958;2023-08-31T04:07:18;100645.56;;;36.90;46.39
74230;BME280;62589;12.568;99.958;2023-08-31T04:09:44;100647.94;;;36.91;46.52
74230;BME280;62589;12.568;99.958;2023-08-31T04:12:11;100645.56;;;36.90;46.64
74230;BME280;62589;12.568;99.958;2023-08-31T04:14:37;100641.94;;;36.93;46.57
74230;BME280;62589;12.568;99.958;2023-08-31T04:17:04;100648.38;;;36.90;45.91
74230;BME280;62589;12.568;99.958;2023-08-31T04:19:30;100641.56;;;36.91;45.69
74230;BME280;62589;12.568;99.958;2023-08-31T04:21:57;100648.38;;;36.90;45.63
74230;BME280;62589;12.568;99.958;2023-08-31T04:24:24;100644.34;;;36.91;45.54
74230;BME280;62589;12.568;99.958;2023-08-31T04:26:50;100637.97;;;36.90;45.91
74230;BME280;62589;12.568;99.958;2023-08-31T04:29:17;100633.16;;;36.91;45.20
74230;BME280;62589;12.568;99.958;2023-08-31T04:31:43;100632.78;;;36.89;44.57
74230;BME280;62589;12.568;99.958;2023-08-31T04:34:09;100641.97;;;36.89;44.41
74230;BME280;62589;12.568;99.958;2023-08-31T04:36:36;100636.38;;;36.89;44.20
74230;BME280;62589;12.568;99.958;2023-08-31T04:39:02;100623.59;;;36.88;43.68
74230;BME280;62589;12.568;99.958;2023-08-31T04:41:29;100619.63;;;36.86;43.22
74230;BME280;62589;12.568;99.958;2023-08-31T04:43:56;100613.25;;;36.85;42.88
74230;BME280;62589;12.568;99.958;2023-08-31T04:46:22;100603.63;;;36.86;43.64
74230;BME280;62589;12.568;99.958;2023-08-31T04:48:48;100594.44;;;36.86;43.69
74230;BME280;62589;12.568;99.958;2023-08-31T04:51:35;100591.22;;;36.87;43.12
74230;BME280;62589;12.568;99.958;2023-08-31T04:54:05;100590.47;;;36.83;43.57
74230;BME280;62589;12.568;99.958;2023-08-31T04:56:32;100590.09;;;36.81;43.67
74230;BME280;62589;12.568;99.958;2023-08-31T04:59:00;100588.09;;;36.81;44.07
74230;BME280;62589;12.568;99.958;2023-08-31T05:01:27;100582.50;;;36.81;44.13
74230;BME280;62589;12.568;99.958;2023-08-31T05:03:53;100572.53;;;36.80;44.15
74230;BME280;62589;12.568;99.958;2023-08-31T05:06:20;100559.72;;;36.83;44.19
74230;BME280;62589;12.568;99.958;2023-08-31T05:08:49;100556.91;;;36.83;44.50
74230;BME280;62589;12.568;99.958;2023-08-31T05:11:16;100546.09;;;36.85;44.83
74230;BME280;62589;12.568;99.958;2023-08-31T05:13:42;100536.84;;;36.88;44.80
74230;BME280;62589;12.568;99.958;2023-08-31T05:16:09;100541.25;;;36.89;44.94
74230;BME280;62589;12.568;99.958;2023-08-31T05:18:37;100532.00;;;36.92;44.85
74230;BME280;62589;12.568;99.958;2023-08-31T05:21:04;100541.56;;;36.95;45.00
74230;BME280;62589;12.568;99.958;2023-08-31T05:23:30;100537.13;;;36.97;45.25
74230;BME280;62589;12.568;99.958;2023-08-31T05:25:57;100522.34;;;36.97;45.97
74230;BME280;62589;12.568;99.958;2023-08-31T05:28:23;100524.41;;;36.93;44.71
74230;BME280;62589;12.568;99.958;2023-08-31T05:30:52;100517.91;;;36.99;44.84
74230;BME280;62589;12.568;99.958;2023-08-31T05:33:19;100508.66;;;37.02;45.35
74230;BME280;62589;12.568;99.958;2023-08-31T05:35:45;100502.56;;;37.07;45.26
74230;BME280;62589;12.568;99.958;2023-08-31T05:38:12;100498.63;;;37.05;44.15
74230;BME280;62589;12.568;99.958;2023-08-31T05:40:38;100491.44;;;37.04;44.15
74230;BME280;62589;12.568;99.958;2023-08-31T05:43:05;100483.34;;;37.09;43.96
74230;BME280;62589;12.568;99.958;2023-08-31T05:45:33;100481.28;;;37.13;44.58
74230;BME280;62589;12.568;99.958;2023-08-31T05:47:59;100476.44;;;37.17;44.72
74230;BME280;62589;12.568;99.958;2023-08-31T05:50:27;100456.00;;;37.21;44.86
74230;BME280;62589;12.568;99.958;2023-08-31T05:52:55;100453.13;;;37.24;43.53
74230;BME280;62589;12.568;99.958;2023-08-31T05:55:22;100434.28;;;37.28;43.37
74230;BME280;62589;12.568;99.958;2023-08-31T05:57:49;100416.56;;;37.35;43.78
74230;BME280;62589;12.568;99.958;2023-08-31T06:00:16;100411.69;;;37.39;44.07
74230;BME280;62589;12.568;99.958;2023-08-31T06:02:43;100411.53;;;37.46;43.68
74230;BME280;62589;12.568;99.958;2023-08-31T06:05:12;100397.84;;;37.52;43.16
74230;BME280;62589;12.568;99.958;2023-08-31T06:07:43;100399.78;;;37.55;42.99
74230;BME280;62589;12.568;99.958;2023-08-31T06:10:09;100384.50;;;37.59;43.14
74230;BME280;62589;12.568;99.958;2023-08-31T06:12:37;100376.78;;;37.63;42.82
74230;BME280;62589;12.568;99.958;2023-08-31T06:15:06;100386.31;;;37.69;42.15
74230;BME280;62589;12.568;99.958;2023-08-31T06:17:33;100382.66;;;37.72;41.73
74230;BME280;62589;12.568;99.958;2023-08-31T06:20:01;100377.75;;;37.76;41.70
74230;BME280;62589;12.568;99.958;2023-08-31T06:22:27;100381.66;;;37.82;41.78
74230;BME280;62589;12.568;99.958;2023-08-31T06:24:54;100373.16;;;37.86;41.54
74230;BME280;62589;12.568;99.958;2023-08-31T06:27:20;100365.03;;;37.92;41.95
74230;BME280;62589;12.568;99.958;2023-08-31T06:29:47;100369.78;;;37.95;42.06
74230;BME280;62589;12.568;99.958;2023-08-31T06:32:17;100353.66;;;37.99;41.70
74230;BME280;62589;12.568;99.958;2023-08-31T06:34:45;100359.09;;;38.06;42.07
74230;BME280;62589;12.568;99.958;2023-08-31T06:37:11;100362.22;;;38.11;41.59
74230;BME280;62589;12.568;99.958;2023-08-31T06:39:37;100344.09;;;38.16;41.59
74230;BME280;62589;12.568;99.958;2023-08-31T06:42:05;100333.16;;;38.22;41.75
74230;BME280;62589;12.568;99.958;2023-08-31T06:44:31;100323.84;;;38.25;40.93
74230;BME280;62589;12.568;99.958;2023-08-31T06:46:58;100310.09;;;38.30;41.48
74230;BME280;62589;12.568;99.958;2023-08-31T06:49:24;100304.84;;;38.32;41.15
74230;BME280;62589;12.568;99.958;2023-08-31T06:51:50;100297.50;;;38.38;41.31
74230;BME280;62589;12.568;99.958;2023-08-31T06:54:19;100295.28;;;38.46;41.50
74230;BME280;62589;12.568;99.958;2023-08-31T06:56:46;100290.81;;;38.48;41.19
74230;BME280;62589;12.568;99.958;2023-08-31T06:59:13;100297.13;;;38.53;41.21
74230;BME280;62589;12.568;99.958;2023-08-31T07:01:39;100280.38;;;38.49;40.25
74230;BME280;62589;12.568;99.958;2023-08-31T07:04:06;100267.84;;;38.54;40.86
74230;BME280;62589;12.568;99.958;2023-08-31T07:06:35;100267.50;;;38.51;40.88
74230;BME280;62589;12.568;99.958;2023-08-31T07:09:03;100261.09;;;38.51;40.00
74230;BME280;62589;12.568;99.958;2023-08-31T07:11:32;100242.56;;;38.57;40.41
74230;BME280;62589;12.568;99.958;2023-08-31T07:13:58;100237.66;;;38.61;40.63
74230;BME280;62589;12.568;99.958;2023-08-31T07:16:25;100223.19;;;38.63;40.04
74230;BME280;62589;12.568;99.958;2023-08-31T07:18:52;100233.63;;;38.62;40.16
74230;BME280;62589;12.568;99.958;2023-08-31T07:21:18;100231.94;;;38.65;40.19
74230;BME280;62589;12.568;99.958;2023-08-31T07:23:45;100237.88;;;38.67;40.44
74230;BME280;62589;12.568;99.958;2023-08-31T07:26:11;100235.78;;;38.71;40.18
74230;BME280;62589;12.568;99.958;2023-08-31T07:28:38;100247.34;;;38.73;40.33
74230;BME280;62589;12.568;99.958;2023-08-31T07:31:07;100233.97;;;38.64;40.14
74230;BME280;62589;12.568;99.958;2023-08-31T07:33:34;100225.53;;;38.64;39.79
74230;BME280;62589;12.568;99.958;2023-08-31T07:36:01;100222.97;;;38.70;39.78
74230;BME280;62589;12.568;99.958;2023-08-31T07:38:30;100216.56;;;38.69;40.51
74230;BME280;62589;12.568;99.958;2023-08-31T07:40:57;100215.25;;;38.74;40.41
74230;BME280;62589;12.568;99.958;2023-08-31T07:43:25;100220.41;;;38.75;39.94
74230;BME280;62589;12.568;99.958;2023-08-31T07:45:53;100211.56;;;38.77;39.94
74230;BME280;62589;12.568;99.958;2023-08-31T07:48:19;100226.81;;;38.76;39.50
74230;BME280;62589;12.568;99.958;2023-08-31T07:50:46;100210.06;;;38.72;39.05
74230;BME280;62589;12.568;99.958;2023-08-31T07:53:12;100224.91;;;38.73;38.50
74230;BME280;62589;12.568;99.958;2023-08-31T07:55:39;100215.59;;;38.76;38.60
74230;BME280;62589;12.568;99.958;2023-08-31T07:58:06;100216.91;;;38.71;38.01
74230;BME280;62589;12.568;99.958;2023-08-31T08:00:33;100214.09;;;38.71;38.41
74230;BME280;62589;12.568;99.958;2023-08-31T08:02:59;100208.47;;;38.59;37.45
74230;BME280;62589;12.568;99.958;2023-08-31T08:05:27;100196.34;;;38.62;38.09
74230;BME280;62589;12.568;99.958;2023-08-31T08:07:53;100203.19;;;38.61;38.01
74230;BME280;62589;12.568;99.958;2023-08-31T08:10:20;100202.84;;;38.59;37.24
74230;BME280;62589;12.568;99.958;2023-08-31T08:12:46;100212.56;;;38.54;37.86
74230;BME280;62589;12.568;99.958;2023-08-31T08:15:13;100205.81;;;38.51;37.41
74230;BME280;62589;12.568;99.958;2023-08-31T08:17:40;100217.81;;;38.52;37.77
74230;BME280;62589;12.568;99.958;2023-08-31T08:20:07;100220.34;;;38.46;38.41
74230;BME280;62589;12.568;99.958;2023-08-31T08:22:33;100212.72;;;38.47;37.75
74230;BME280;62589;12.568;99.958;2023-08-31T08:25:01;100224.06;;;38.43;38.29
74230;BME280;62589;12.568;99.958;2023-08-31T08:27:28;100224.38;;;38.45;38.65
74230;BME280;62589;12.568;99.958;2023-08-31T08:29:55;100227.31;;;38.42;39.09
74230;BME280;62589;12.568;99.958;2023-08-31T08:32:21;100230.91;;;38.42;39.00
74230;BME280;62589;12.568;99.958;2023-08-31T08:34:48;100228.88;;;38.43;39.49
74230;BME280;62589;12.568;99.958;2023-08-31T08:37:14;100227.75;;;38.40;39.00
74230;BME280;62589;12.568;99.958;2023-08-31T08:39:41;100222.13;;;38.40;38.71
74230;BME280;62589;12.568;99.958;2023-08-31T08:42:10;100223.81;;;38.38;39.12
74230;BME280;62589;12.568;99.958;2023-08-31T08:44:37;100224.25;;;38.36;39.04
74230;BME280;62589;12.568;99.958;2023-08-31T08:47:04;100225.91;;;38.34;39.48
74230;BME280;62589;12.568;99.958;2023-08-31T08:49:33;100224.41;;;38.29;39.80
74230;BME280;62589;12.568;99.958;2023-08-31T08:52:02;100221.97;;;38.31;39.79
74230;BME280;62589;12.568;99.958;2023-08-31T08:54:31;100230.88;;;38.26;40.45
74230;BME280;62589;12.568;99.958;2023-08-31T08:56:58;100234.13;;;38.25;40.28
74230;BME280;62589;12.568;99.958;2023-08-31T08:59:24;100241.00;;;38.24;40.14
74230;BME280;62589;12.568;99.958;2023-08-31T09:01:51;100233.91;;;38.19;40.27
74230;BME280;62589;12.568;99.958;2023-08-31T09:04:18;100241.16;;;38.16;40.33
74230;BME280;62589;12.568;99.958;2023-08-31T09:06:45;100259.22;;;38.15;40.49
74230;BME280;62589;12.568;99.958;2023-08-31T09:09:11;100258.53;;;38.08;40.11
74230;BME280;62589;12.568;99.958;2023-08-31T09:11:37;100252.69;;;38.02;40.11
74230;BME280;62589;12.568;99.958;2023-08-31T09:14:18;100262.31;;;38.01;40.53
74230;BME280;62589;12.568;99.958;2023-08-31T09:16:46;100249.34;;;37.91;40.11
74230;BME280;62589;12.568;99.958;2023-08-31T09:19:23;100253.81;;;37.89;39.74
74230;BME280;62589;12.568;99.958;2023-08-31T09:21:52;100249.50;;;37.84;39.75
74230;BME280;62589;12.568;99.958;2023-08-31T09:24:18;100242.78;;;37.81;39.42
74230;BME280;62589;12.568;99.958;2023-08-31T09:26:47;100234.97;;;37.73;39.83
74230;BME280;62589;12.568;99.958;2023-08-31T09:29:14;100240.28;;;37.67;39.72
74230;BME280;62589;12.568;99.958;2023-08-31T09:31:44;100254.75;;;37.62;40.29
74230;BME280;62589;12.568;99.958;2023-08-31T09:34:14;100245.69;;;37.58;40.12
74230;BME280;62589;12.568;99.958;2023-08-31T09:36:41;100253.00;;;37.52;40.03
74230;BME280;62589;12.568;99.958;2023-08-31T09:39:09;100258.69;;;37.48;40.37
74230;BME280;62589;12.568;99.958;2023-08-31T09:41:36;100255.59;;;37.43;40.38
74230;BME280;62589;12.568;99.958;2023-08-31T09:44:18;100254.09;;;37.38;40.91
74230;BME280;62589;12.568;99.958;2023-08-31T09:46:46;100247.00;;;37.34;40.82
74230;BME280;62589;12.568;99.958;2023-08-31T09:49:17;100255.03;;;37.32;41.03
74230;BME280;62589;12.568;99.958;2023-08-31T09:51:49;100243.19;;;37.24;41.45
74230;BME280;62589;12.568;99.958;2023-08-31T09:54:20;100254.38;;;37.24;41.39
74230;BME280;62589;12.568;99.958;2023-08-31T09:56:49;100248.97;;;37.13;41.15
74230;BME280;62589;12.568;99.958;2023-08-31T09:59:17;100255.38;;;37.14;41.52
74230;BME280;62589;12.568;99.958;2023-08-31T10:01:47;100247.03;;;37.10;41.44
74230;BME280;62589;12.568;99.958;2023-08-31T10:04:14;100248.69;;;37.08;41.40
74230;BME280;62589;12.568;99.958;2023-08-31T10:06:42;100249.97;;;37.03;41.27
74230;BME280;62589;12.568;99.958;2023-08-31T10:09:09;100249.28;;;36.99;41.47
74230;BME280;62589;12.568;99.958;2023-08-31T10:11:38;100271.66;;;36.99;41.30
74230;BME280;62589;12.568;99.958;2023-08-31T10:14:11;100274.09;;;36.97;41.28
74230;BME280;62589;12.568;99.958;2023-08-31T10:16:39;100267.34;;;36.95;41.31
74230;BME280;62589;12.568;99.958;2023-08-31T10:19:07;100275.75;;;36.95;41.44
74230;BME280;62589;12.568;99.958;2023-08-31T10:21:33;100274.94;;;36.94;41.26
74230;BME280;62589;12.568;99.958;2023-08-31T10:24:00;100287.34;;;36.93;41.68
74230;BME280;62589;12.568;99.958;2023-08-31T10:26:31;100292.16;;;36.93;41.46
74230;BME280;62589;12.568;99.958;2023-08-31T10:28:58;100292.16;;;36.93;41.60
74230;BME280;62589;12.568;99.958;2023-08-31T10:31:34;100304.16;;;36.93;41.69
74230;BME280;62589;12.568;99.958;2023-08-31T10:34:05;100315.34;;;36.93;41.42
74230;BME280;62589;12.568;99.958;2023-08-31T10:36:45;100320.22;;;36.89;41.44
74230;BME280;62589;12.568;99.958;2023-08-31T10:39:16;100316.19;;;36.90;41.47
74230;BME280;62589;12.568;99.958;2023-08-31T10:41:54;100327.00;;;36.88;41.09
74230;BME280;62589;12.568;99.958;2023-08-31T10:44:25;100326.66;;;36.86;41.41
74230;BME280;62589;12.568;99.958;2023-08-31T10:46:53;100321.47;;;36.85;41.34
74230;BME280;62589;12.568;99.958;2023-08-31T10:49:22;100327.91;;;36.81;41.67
74230;BME280;62589;12.568;99.958;2023-08-31T10:52:19;100335.09;;;36.82;41.88
74230;BME280;62589;12.568;99.958;2023-08-31T10:54:46;100340.69;;;36.82;41.70
74230;BME280;62589;12.568;99.958;2023-08-31T10:57:13;100344.72;;;36.81;42.04
74230;BME280;62589;12.568;99.958;2023-08-31T10:59:52;100341.13;;;36.81;42.31
74230;BME280;62589;12.568;99.958;2023-08-31T11:02:41;100351.22;;;36.75;42.12
74230;BME280;62589;12.568;99.958;2023-08-31T11:05:12;100349.66;;;36.74;42.55
74230;BME280;62589;12.568;99.958;2023-08-31T11:07:41;100360.06;;;36.73;42.34
74230;BME280;62589;12.568;99.958;2023-08-31T11:12:47;100376.06;;;36.69;42.43
74230;BME280;62589;12.568;99.958;2023-08-31T11:15:17;100377.28;;;36.68;42.66
74230;BME280;62589;12.568;99.958;2023-08-31T11:17:44;100382.44;;;36.70;42.71
74230;BME280;62589;12.568;99.958;2023-08-31T11:20:15;100386.09;;;36.67;42.62
74230;BME280;62589;12.568;99.958;2023-08-31T11:22:44;100391.25;;;36.68;42.65
74230;BME280;62589;12.568;99.958;2023-08-31T11:25:13;100381.28;;;36.67;42.99
74230;BME280;62589;12.568;99.958;2023-08-31T11:27:40;100386.47;;;36.69;42.92
74230;BME280;62589;12.568;99.958;2023-08-31T11:30:16;100385.66;;;36.68;43.10
74230;BME280;62589;12.568;99.958;2023-08-31T11:32:49;100381.72;;;36.66;43.02
74230;BME280;62589;12.568;99.958;2023-08-31T11:35:16;100376.47;;;36.68;43.19
74230;BME280;62589;12.568;99.958;2023-08-31T11:37:44;100374.91;;;36.67;42.81
74230;BME280;62589;12.568;99.958;2023-08-31T11:40:13;100374.53;;;36.65;43.03
74230;BME280;62589;12.568;99.958;2023-08-31T11:42:42;100369.72;;;36.65;43.11
74230;BME280;62589;12.568;99.958;2023-08-31T11:45:11;100370.16;;;36.64;43.04
74230;BME280;62589;12.568;99.958;2023-08-31T11:47:40;100371.38;;;36.63;43.05
74230;BME280;62589;12.568;99.958;2023-08-31T11:50:08;100378.53;;;36.64;43.17
74230;BME280;62589;12.568;99.958;2023-08-31T11:52:35;100379.34;;;36.64;43.29
74230;BME280;62589;12.568;99.958;2023-08-31T11:55:01;100381.72;;;36.66;43.35
74230;BME280;62589;12.568;99.958;2023-08-31T11:57:28;100373.75;;;36.64;43.59
74230;BME280;62589;12.568;99.958;2023-08-31T11:59:55;100378.53;;;36.64;43.31
74230;BME280;62589;12.568;99.958;2023-08-31T12:02:22;100386.16;;;36.63;43.32
74230;BME280;62589;12.568;99.958;2023-08-31T12:04:48;100384.13;;;36.64;43.54
74230;BME280;62589;12.568;99.958;2023-08-31T12:07:19;100394.13;;;36.65;43.67
74230;BME280;62589;12.568;99.958;2023-08-31T12:09:45;100391.31;;;36.65;43.35
74230;BME280;62589;12.568;99.958;2023-08-31T12:12:20;100402.13;;;36.63;43.38
74230;BME280;62589;12.568;99.958;2023-08-31T12:14:52;100408.09;;;36.65;43.36
74230;BME280;62589;12.568;99.958;2023-08-31T12:17:19;100403.28;;;36.65;43.53
74230;BME280;62589;12.568;99.958;2023-08-31T12:19:45;100415.69;;;36.64;43.84
74230;BME280;62589;12.568;99.958;2023-08-31T12:22:12;100414.13;;;36.63;43.74
74230;BME280;62589;12.568;99.958;2023-08-31T12:24:41;100409.31;;;36.64;43.35
74230;BME280;62589;12.568;99.958;2023-08-31T12:27:10;100408.94;;;36.62;43.34
74230;BME280;62589;12.568;99.958;2023-08-31T12:29:37;100409.72;;;36.62;43.34
74230;BME280;62589;12.568;99.958;2023-08-31T12:32:03;100407.34;;;36.61;43.54
74230;BME280;62589;12.568;99.958;2023-08-31T12:34:30;100404.97;;;36.59;43.45
74230;BME280;62589;12.568;99.958;2023-08-31T12:36:58;100406.97;;;36.59;43.69
74230;BME280;62589;12.568;99.958;2023-08-31T12:39:28;100407.44;;;36.57;43.78
74230;BME280;62589;12.568;99.958;2023-08-31T12:41:55;100417.38;;;36.58;43.95
74230;BME280;62589;12.568;99.958;2023-08-31T12:44:22;100418.16;;;36.59;43.82
74230;BME280;62589;12.568;99.958;2023-08-31T12:46:48;100429.00;;;36.57;43.86
74230;BME280;62589;12.568;99.958;2023-08-31T12:49:15;100430.22;;;36.56;44.05
74230;BME280;62589;12.568;99.958;2023-08-31T12:51:41;100431.84;;;36.53;43.41
74230;BME280;62589;12.568;99.958;2023-08-31T12:54:08;100429.91;;;36.50;43.77
74230;BME280;62589;12.568;99.958;2023-08-31T12:56:34;100433.50;;;36.51;43.41